Time;durP1;ratioP1;P1;durP2;ratioP2;P2;SDS_P1;SDS_P2;PMS_P1;PMS_P2;Temp;Humidity;BMP_temperature;BMP_pressure;BME280_temperature;BME280_humidity;BME280_pressure;Samples;Min_cycle;Max_cycle;Signal;HPM_P1;HPM_P2
2024/04/02 00:00:39;;;;;;;11.98;6.78;;;6.30;99.90;;;;;;5056894;28;20037;-81
2024/04/02 00:03:06;;;;;;;14.27;7.28;;;6.30;99.90;;;;;;5041282;28;20099;-80
2024/04/02 00:05:32;;;;;;;9.60;6.57;;;6.30;99.90;;;;;;5056724;28;20041;-80
2024/04/02 00:07:58;;;;;;;13.07;7.25;;;6.30;99.90;;;;;;5041526;28;20049;-80
2024/04/02 00:10:24;;;;;;;13.50;7.40;;;6.30;99.90;;;;;;5041306;28;20056;-77
2024/04/02 00:12:49;;;;;;;16.23;6.57;;;6.20;99.90;;;;;;5041966;28;20070;-78
2024/04/02 00:15:15;;;;;;;12.70;6.80;;;6.20;99.90;;;;;;5041803;28;20044;-81
2024/04/02 00:17:43;;;;;;;8.82;6.40;;;6.20;99.90;;;;;;5040703;28;20431;-80
2024/04/02 00:20:09;;;;;;;13.00;6.55;;;6.20;99.90;;;;;;5060532;28;20049;-80
2024/04/02 00:22:35;;;;;;;12.10;6.35;;;6.20;99.90;;;;;;5039061;28;20048;-81
2024/04/02 00:25:00;;;;;;;14.25;6.45;;;6.20;99.90;;;;;;5038773;28;20047;-78
2024/04/02 00:27:27;;;;;;;12.98;7.55;;;6.20;99.90;;;;;;5035758;28;20051;-79
2024/04/02 00:29:53;;;;;;;12.70;6.72;;;6.10;99.90;;;;;;5034602;28;20065;-79
2024/04/02 00:32:19;;;;;;;15.45;7.65;;;6.10;99.90;;;;;;5067892;28;20133;-80
2024/04/02 00:34:44;;;;;;;11.18;6.72;;;6.10;99.90;;;;;;5038186;28;20571;-78
2024/04/02 00:37:10;;;;;;;15.38;7.53;;;6.10;99.90;;;;;;5040783;28;20735;-79
2024/04/02 00:39:36;;;;;;;11.38;7.25;;;6.10;99.90;;;;;;5055236;28;20049;-80
2024/04/02 00:42:05;;;;;;;11.88;6.30;;;6.10;99.90;;;;;;5033933;28;20041;-80
2024/04/02 00:44:33;;;;;;;16.27;7.18;;;6.10;99.90;;;;;;5032474;28;20119;-80
2024/04/02 00:46:59;;;;;;;10.88;7.03;;;6.00;99.90;;;;;;5048557;28;20061;-80
2024/04/02 00:49:25;;;;;;;10.48;7.38;;;6.00;99.90;;;;;;5050065;28;20077;-79
2024/04/02 00:51:52;;;;;;;14.82;7.45;;;6.00;99.90;;;;;;5031908;28;20034;-80
2024/04/02 00:54:18;;;;;;;12.82;7.38;;;6.00;99.90;;;;;;5039994;28;20116;-80
2024/04/02 00:56:45;;;;;;;14.30;7.82;;;6.00;99.90;;;;;;5053303;28;20053;-80
2024/04/02 00:59:11;;;;;;;12.55;7.30;;;5.90;99.90;;;;;;5034911;28;20049;-80
2024/04/02 01:01:37;;;;;;;11.13;7.70;;;5.90;99.90;;;;;;5031925;28;20057;-79
2024/04/02 01:04:03;;;;;;;14.27;8.18;;;5.80;99.90;;;;;;5068737;28;20045;-80
2024/04/02 01:06:29;;;;;;;15.32;7.95;;;5.90;99.90;;;;;;5036986;28;20037;-80
2024/04/02 01:08:55;;;;;;;14.73;7.32;;;5.80;99.90;;;;;;5037716;28;20073;-80
2024/04/02 01:11:21;;;;;;;15.77;8.32;;;5.80;99.90;;;;;;5039336;28;20044;-80
2024/04/02 01:13:47;;;;;;;15.90;8.85;;;5.80;99.90;;;;;;5037492;28;20044;-80
2024/04/02 01:16:17;;;;;;;15.20;8.13;;;5.80;99.90;;;;;;5032229;28;20124;-80
2024/04/02 01:18:45;;;;;;;16.10;8.32;;;5.80;99.90;;;;;;5031332;28;20048;-80
2024/04/02 01:21:11;;;;;;;12.73;8.40;;;5.80;99.90;;;;;;5050540;28;20049;-80
2024/04/02 01:23:36;;;;;;;18.85;8.90;;;5.80;99.90;;;;;;5032351;28;20048;-81
2024/04/02 01:26:02;;;;;;;17.40;10.07;;;5.90;99.90;;;;;;5051179;28;20038;-80
2024/04/02 01:28:28;;;;;;;17.70;9.93;;;5.90;99.90;;;;;;5030222;28;20037;-80
2024/04/02 01:30:53;;;;;;;19.30;9.85;;;5.90;99.90;;;;;;5033396;28;20103;-79
2024/04/02 01:33:19;;;;;;;16.08;9.98;;;6.00;99.90;;;;;;5030931;28;20037;-80
2024/04/02 01:35:44;;;;;;;19.67;9.57;;;6.10;99.90;;;;;;5028433;28;20363;-80
2024/04/02 01:38:10;;;;;;;19.92;10.02;;;6.10;99.90;;;;;;5029073;28;20488;-80
2024/04/02 01:40:35;;;;;;;19.95;11.38;;;6.10;99.90;;;;;;5031025;28;20041;-80
2024/04/02 01:43:01;;;;;;;21.08;9.88;;;6.20;99.90;;;;;;5030876;28;20033;-81
2024/04/02 01:45:26;;;;;;;16.95;9.95;;;6.30;99.90;;;;;;5029810;28;20041;-80
2024/04/02 01:47:52;;;;;;;19.55;11.15;;;6.30;99.90;;;;;;5047468;28;20412;-80
2024/04/02 01:50:17;;;;;;;19.30;11.25;;;6.40;99.90;;;;;;5030629;28;20150;-78
2024/04/02 01:52:43;;;;;;;20.67;10.77;;;6.40;99.90;;;;;;5031166;28;20120;-80
2024/04/02 01:55:09;;;;;;;19.02;10.63;;;6.50;99.90;;;;;;5032332;28;20045;-80
2024/04/02 01:57:34;;;;;;;22.30;11.27;;;6.50;99.90;;;;;;5032599;28;20042;-80
2024/04/02 02:00:00;;;;;;;18.95;10.77;;;6.50;99.90;;;;;;5050329;28;20090;-80
2024/04/02 02:02:25;;;;;;;26.23;11.13;;;6.40;99.90;;;;;;5033041;28;20041;-78
2024/04/02 02:04:51;;;;;;;20.50;10.15;;;6.50;99.90;;;;;;5031658;28;20063;-79
2024/04/02 02:07:16;;;;;;;18.15;10.57;;;6.40;99.90;;;;;;5033324;28;20179;-81
2024/04/02 02:09:42;;;;;;;19.77;10.13;;;6.50;99.90;;;;;;5032145;28;20049;-80
2024/04/02 02:12:07;;;;;;;18.55;10.15;;;6.50;99.90;;;;;;5046660;28;20033;-80
2024/04/02 02:14:33;;;;;;;16.80;11.00;;;6.50;99.90;;;;;;5036061;28;20100;-79
2024/04/02 02:16:58;;;;;;;21.90;11.52;;;6.50;99.90;;;;;;5039141;28;20132;-80
2024/04/02 02:19:24;;;;;;;17.02;10.57;;;6.60;99.90;;;;;;5038233;28;20045;-80
2024/04/02 02:21:49;;;;;;;19.90;10.93;;;6.60;99.90;;;;;;5054545;28;20033;-79
2024/04/02 02:24:15;;;;;;;22.08;12.00;;;6.60;99.90;;;;;;5056056;28;20676;-80
2024/04/02 02:26:41;;;;;;;21.60;11.18;;;6.60;99.90;;;;;;5040227;28;20037;-80
2024/04/02 02:29:06;;;;;;;24.90;12.02;;;6.80;99.90;;;;;;5040497;28;20030;-80
2024/04/02 02:31:35;;;;;;;20.92;11.90;;;6.70;99.90;;;;;;5038855;28;20429;-80
2024/04/02 02:34:02;;;;;;;23.60;12.50;;;6.70;99.90;;;;;;5043176;28;20033;-80
2024/04/02 02:36:27;;;;;;;22.00;13.15;;;7.50;99.90;;;;;;5041546;28;20235;-80
2024/04/02 02:38:53;;;;;;;23.25;13.65;;;6.80;99.90;;;;;;5057026;28;20048;-80
2024/04/02 02:41:19;;;;;;;21.73;13.10;;;6.90;99.90;;;;;;5057427;28;20041;-79
2024/04/02 02:43:44;;;;;;;24.40;12.95;;;6.90;99.90;;;;;;5041346;28;20046;-79
2024/04/02 02:46:10;;;;;;;22.05;12.43;;;6.90;99.90;;;;;;5043446;28;20072;-80
2024/04/02 02:48:35;;;;;;;22.08;12.70;;;6.80;99.90;;;;;;5055532;28;20064;-79
2024/04/02 02:51:01;;;;;;;20.83;12.98;;;6.90;99.90;;;;;;5036763;28;20578;-80
2024/04/02 02:53:26;;;;;;;21.27;12.50;;;6.90;99.90;;;;;;5036685;28;20044;-79
2024/04/02 02:55:56;;;;;;;26.30;13.88;;;6.80;99.90;;;;;;5037169;28;20053;-80
2024/04/02 02:58:22;;;;;;;24.48;13.93;;;6.80;99.90;;;;;;5036653;28;20511;-80
2024/04/02 03:00:48;;;;;;;22.40;12.82;;;6.70;99.90;;;;;;5038735;28;20029;-80
2024/04/02 03:03:14;;;;;;;22.77;13.68;;;6.70;99.90;;;;;;5040143;28;20103;-80
2024/04/02 03:05:40;;;;;;;23.48;13.63;;;6.80;99.90;;;;;;5054095;28;20037;-79
2024/04/02 03:08:06;;;;;;;22.98;13.07;;;6.70;99.90;;;;;;5038813;28;20045;-78
2024/04/02 03:10:31;;;;;;;21.88;13.85;;;6.80;99.90;;;;;;5053789;28;20087;-80
2024/04/02 03:12:57;;;;;;;24.60;13.73;;;6.70;99.90;;;;;;5038500;28;20033;-80
2024/04/02 03:15:23;;;;;;;26.27;13.98;;;6.70;99.90;;;;;;5041007;28;20448;-78
2024/04/02 03:17:49;;;;;;;25.27;13.65;;;6.70;99.90;;;;;;5070182;28;20090;-81
2024/04/02 03:20:14;;;;;;;24.80;13.25;;;6.70;99.90;;;;;;5027678;28;20040;-80
2024/04/02 03:22:40;;;;;;;23.50;13.02;;;6.80;99.90;;;;;;5025718;28;20069;-80
2024/04/02 03:25:05;;;;;;;21.33;13.00;;;6.80;99.90;;;;;;5056701;28;20118;-78
2024/04/02 03:27:31;;;;;;;25.55;13.77;;;6.80;99.90;;;;;;5037537;28;20080;-80
2024/04/02 03:29:57;;;;;;;22.15;12.30;;;6.80;99.90;;;;;;5071177;28;20319;-80
2024/04/02 03:32:22;;;;;;;20.63;12.30;;;6.70;99.90;;;;;;5037612;28;20049;-80
2024/04/02 03:34:48;;;;;;;19.88;12.93;;;6.70;99.90;;;;;;5037822;28;20052;-80
2024/04/02 03:37:13;;;;;;;22.00;11.75;;;6.60;99.90;;;;;;5038345;28;20515;-80
2024/04/02 03:39:45;;;;;;;18.25;12.48;;;6.60;99.90;;;;;;5054573;28;20041;-80
2024/04/02 03:42:10;;;;;;;25.63;13.00;;;6.60;99.90;;;;;;5040538;28;20099;-81
2024/04/02 03:44:36;;;;;;;23.90;12.05;;;6.60;99.90;;;;;;5038687;28;20041;-80
2024/04/02 03:47:02;;;;;;;22.17;12.32;;;6.60;99.90;;;;;;5038629;28;20481;-79
2024/04/02 03:49:27;;;;;;;21.75;12.32;;;6.50;99.90;;;;;;5039454;28;20037;-80
2024/04/02 03:51:53;;;;;;;17.42;11.20;;;6.50;99.90;;;;;;5059487;28;20071;-80
2024/04/02 03:54:18;;;;;;;19.17;12.20;;;6.50;99.90;;;;;;5061505;28;20047;-79
2024/04/02 03:56:44;;;;;;;21.08;12.00;;;6.50;99.90;;;;;;5045895;28;20095;-78
2024/04/02 03:59:10;;;;;;;20.70;12.63;;;6.50;99.90;;;;;;5063460;28;20070;-79
2024/04/02 04:01:35;;;;;;;19.52;11.05;;;6.50;99.90;;;;;;5045213;28;20045;-79
2024/04/02 04:04:01;;;;;;;20.30;11.25;;;6.40;99.90;;;;;;5059458;28;20045;-80
2024/04/02 04:06:26;;;;;;;18.83;10.88;;;6.40;99.90;;;;;;5039246;28;20045;-79
2024/04/02 04:08:52;;;;;;;18.17;10.95;;;6.40;99.90;;;;;;5058160;28;20049;-79
2024/04/02 04:11:18;;;;;;;18.15;12.13;;;6.40;99.90;;;;;;5041055;28;20025;-80
2024/04/02 04:13:43;;;;;;;17.23;11.80;;;6.40;99.90;;;;;;5042642;28;20101;-81
2024/04/02 04:16:09;;;;;;;18.48;11.65;;;6.40;99.90;;;;;;5058714;28;20454;-80
2024/04/02 04:18:34;;;;;;;17.77;11.05;;;6.40;99.90;;;;;;5042024;28;20049;-80
2024/04/02 04:21:01;;;;;;;18.02;11.75;;;6.40;99.90;;;;;;5042853;28;20037;-80
2024/04/02 04:23:28;;;;;;;19.25;11.63;;;6.50;99.90;;;;;;5044862;28;20044;-78
2024/04/02 04:26:01;;;;;;;18.85;11.85;;;6.40;99.90;;;;;;5060493;28;20037;-80
2024/04/02 04:28:28;;;;;;;16.92;11.88;;;6.30;99.90;;;;;;5041483;28;20049;-78
2024/04/02 04:30:59;;;;;;;16.95;11.57;;;6.30;99.90;;;;;;5058119;28;20037;-79
2024/04/02 04:33:25;;;;;;;16.90;10.98;;;6.30;99.90;;;;;;5041697;28;20056;-80
2024/04/02 04:35:52;;;;;;;17.85;10.48;;;6.30;99.90;;;;;;5044677;28;20508;-80
2024/04/02 04:38:19;;;;;;;23.27;12.63;;;6.30;99.90;;;;;;5074153;28;20041;-79
2024/04/02 04:40:45;;;;;;;19.85;11.60;;;6.30;99.90;;;;;;5073297;28;20045;-80
2024/04/02 04:43:13;;;;;;;18.67;11.77;;;6.30;99.90;;;;;;5042775;28;20068;-80
2024/04/02 04:45:39;;;;;;;17.98;11.70;;;6.30;99.90;;;;;;5039390;28;20123;-80
2024/04/02 04:48:08;;;;;;;19.73;12.50;;;6.20;99.90;;;;;;5040456;28;20555;-79
2024/04/02 04:50:35;;;;;;;19.25;12.32;;;6.20;99.90;;;;;;5042292;28;20041;-80
2024/04/02 04:53:01;;;;;;;17.83;11.02;;;6.20;99.90;;;;;;5039997;28;20033;-79
2024/04/02 04:55:31;;;;;;;15.30;10.60;;;6.20;99.90;;;;;;5058581;28;20572;-80
2024/04/02 04:57:57;;;;;;;18.55;12.45;;;6.20;99.90;;;;;;5059303;28;20071;-79
2024/04/02 05:00:23;;;;;;;19.27;11.60;;;6.20;99.90;;;;;;5054581;28;20060;-80
2024/04/02 05:02:49;;;;;;;17.52;11.27;;;6.20;99.90;;;;;;5073443;28;20076;-80
2024/04/02 05:05:15;;;;;;;19.33;11.15;;;6.20;99.90;;;;;;5071180;28;20033;-79
2024/04/02 05:07:55;;;;;;;15.85;11.32;;;6.10;99.90;;;;;;5050037;28;20091;-79
2024/04/02 05:10:21;;;;;;;18.20;10.93;;;6.20;99.90;;;;;;5060830;28;20104;-80
2024/04/02 05:12:47;;;;;;;15.50;10.43;;;6.20;99.90;;;;;;5061785;28;20040;-80
2024/04/02 05:15:14;;;;;;;16.48;10.52;;;6.20;99.90;;;;;;5060227;28;20461;-80
2024/04/02 05:17:39;;;;;;;15.85;10.23;;;6.20;99.90;;;;;;5060416;28;20048;-80
2024/04/02 05:20:05;;;;;;;19.73;10.95;;;6.20;99.90;;;;;;5046829;28;20049;-80
2024/04/02 05:22:31;;;;;;;15.95;10.40;;;6.20;99.90;;;;;;5039438;28;20053;-80
2024/04/02 05:24:56;;;;;;;17.80;10.80;;;6.20;99.90;;;;;;5041428;28;20044;-80
2024/04/02 05:27:22;;;;;;;15.95;10.57;;;6.20;99.90;;;;;;5040564;28;20038;-80
2024/04/02 05:29:47;;;;;;;19.17;10.82;;;6.20;99.90;;;;;;5040935;28;20045;-79
2024/04/02 05:32:13;;;;;;;15.77;9.63;;;6.20;99.90;;;;;;5057909;28;20128;-79
2024/04/02 05:34:38;;;;;;;13.73;9.63;;;6.20;99.90;;;;;;5058496;28;20363;-78
2024/04/02 05:37:04;;;;;;;19.25;10.75;;;6.20;99.90;;;;;;5057009;28;20116;-80
2024/04/02 05:39:29;;;;;;;16.58;10.13;;;6.30;99.90;;;;;;5057254;28;20048;-80
2024/04/02 05:41:55;;;;;;;18.17;10.98;;;6.40;99.90;;;;;;5042604;28;20041;-78
2024/04/02 05:44:20;;;;;;;17.60;9.75;;;6.40;99.90;;;;;;5057469;28;20037;-80
2024/04/02 05:46:46;;;;;;;14.30;10.10;;;6.40;99.90;;;;;;5042304;28;20044;-80
2024/04/02 05:49:14;;;;;;;18.20;10.73;;;6.50;99.90;;;;;;5073477;28;20040;-78
2024/04/02 05:51:39;;;;;;;14.63;9.55;;;6.50;99.90;;;;;;5060751;28;20133;-80
2024/04/02 05:54:05;;;;;;;14.93;10.23;;;6.60;99.90;;;;;;5043457;28;20072;-80
2024/04/02 05:56:30;;;;;;;15.65;9.40;;;6.60;99.90;;;;;;5051915;28;20041;-80
2024/04/02 05:58:56;;;;;;;13.02;8.23;;;6.70;99.90;;;;;;5037942;28;20040;-80
2024/04/02 06:01:22;;;;;;;15.18;8.65;;;6.70;99.90;;;;;;5033304;28;20048;-80
2024/04/02 06:03:47;;;;;;;14.27;7.93;;;6.80;99.90;;;;;;5032559;28;20575;-80
2024/04/02 06:06:13;;;;;;;12.00;7.75;;;6.80;99.90;;;;;;5031068;28;20045;-81
2024/04/02 06:08:39;;;;;;;12.80;8.90;;;6.90;99.90;;;;;;5031923;28;20123;-81
2024/04/02 06:11:04;;;;;;;12.07;7.80;;;7.00;99.90;;;;;;5016310;28;20095;-79
2024/04/02 06:13:30;;;;;;;12.35;7.97;;;7.10;99.90;;;;;;5032860;28;20037;-78
2024/04/02 06:15:56;;;;;;;11.38;7.93;;;7.20;99.90;;;;;;5035850;28;20045;-79
2024/04/02 06:18:23;;;;;;;12.82;7.82;;;7.30;99.90;;;;;;5036220;28;20118;-80
2024/04/02 06:20:59;;;;;;;11.70;7.97;;;7.40;99.90;;;;;;5034881;28;20099;-81
2024/04/02 06:23:25;;;;;;;11.93;7.78;;;7.40;99.90;;;;;;5037532;28;20509;-80
2024/04/02 06:25:50;;;;;;;13.70;8.25;;;7.50;99.90;;;;;;5036752;28;20040;-80
2024/04/02 06:28:16;;;;;;;11.65;7.78;;;7.70;99.90;;;;;;5038827;28;20091;-81
2024/04/02 06:30:43;;;;;;;14.02;8.25;;;7.80;99.90;;;;;;5036077;28;20099;-81
2024/04/02 06:33:08;;;;;;;10.65;7.07;;;7.80;99.90;;;;;;5042352;28;20052;-79
2024/04/02 06:35:34;;;;;;;14.02;7.38;;;7.90;99.90;;;;;;5054615;28;20045;-79
2024/04/02 06:38:00;;;;;;;11.60;7.72;;;8.00;99.90;;;;;;5034994;28;20041;-81
2024/04/02 06:40:25;;;;;;;12.45;8.10;;;8.00;99.90;;;;;;5051902;28;20393;-81
2024/04/02 06:42:51;;;;;;;10.50;7.28;;;7.90;99.90;;;;;;5037335;28;20042;-79
2024/04/02 06:45:16;;;;;;;10.48;7.70;;;8.00;99.90;;;;;;5050740;28;20083;-79
2024/04/02 06:47:42;;;;;;;10.95;7.72;;;8.10;99.90;;;;;;5040487;28;20074;-81
2024/04/02 06:50:07;;;;;;;11.32;6.85;;;8.20;99.90;;;;;;5033236;28;20037;-79
2024/04/02 06:52:33;;;;;;;11.40;7.65;;;8.30;99.90;;;;;;5032843;28;20045;-77
2024/04/02 06:54:58;;;;;;;11.32;7.75;;;8.40;99.90;;;;;;5066929;28;20045;-82
2024/04/02 06:57:24;;;;;;;12.73;7.88;;;8.50;99.90;;;;;;5034672;28;20052;-79
2024/04/02 06:59:49;;;;;;;13.98;9.00;;;8.60;99.90;;;;;;5033767;28;20075;-78
2024/04/02 07:02:15;;;;;;;15.35;9.38;;;8.80;99.90;;;;;;5034923;28;20041;-79
2024/04/02 07:04:41;;;;;;;12.45;7.72;;;8.80;99.90;;;;;;5033761;28;20165;-81
2024/04/02 07:07:06;;;;;;;13.63;7.72;;;8.90;99.90;;;;;;5053866;28;20120;-80
2024/04/02 07:09:33;;;;;;;14.10;8.07;;;9.00;99.90;;;;;;5054266;28;20552;-80
2024/04/02 07:11:59;;;;;;;16.45;8.63;;;9.00;99.90;;;;;;5037130;28;20077;-80
2024/04/02 07:14:25;;;;;;;12.32;7.10;;;9.00;99.90;;;;;;5055027;28;20091;-81
2024/04/02 07:16:53;;;;;;;12.95;7.75;;;9.00;99.90;;;;;;5035717;28;20041;-80
2024/04/02 07:19:18;;;;;;;12.68;7.43;;;9.00;99.90;;;;;;5039339;28;20037;-81
2024/04/02 07:21:44;;;;;;;11.32;7.65;;;9.00;99.90;;;;;;5052964;28;20054;-80
2024/04/02 07:24:10;;;;;;;12.05;7.72;;;9.00;99.90;;;;;;5055293;28;20055;-80
2024/04/02 07:26:35;;;;;;;14.63;7.70;;;9.00;99.90;;;;;;5051717;28;20033;-80
2024/04/02 07:29:01;;;;;;;13.18;7.72;;;9.10;99.90;;;;;;5056718;28;20049;-80
2024/04/02 07:31:28;;;;;;;13.85;7.47;;;9.10;99.90;;;;;;5052806;28;20080;-79
2024/04/02 07:33:54;;;;;;;11.27;6.95;;;9.20;99.90;;;;;;5058793;28;20210;-79
2024/04/02 07:36:20;;;;;;;12.15;7.32;;;9.30;99.90;;;;;;5052974;28;20512;-80
2024/04/02 07:38:45;;;;;;;10.57;7.35;;;9.40;99.90;;;;;;5058724;28;20079;-80
2024/04/02 07:41:11;;;;;;;12.15;7.05;;;9.50;99.90;;;;;;5075013;28;20082;-82
2024/04/02 07:43:37;;;;;;;11.50;7.30;;;9.40;99.90;;;;;;5060565;28;20037;-80
2024/04/02 07:46:02;;;;;;;14.05;7.55;;;9.40;99.90;;;;;;5074805;28;20037;-80
2024/04/02 07:48:28;;;;;;;14.13;6.35;;;9.40;99.90;;;;;;5060370;28;20133;-80
2024/04/02 07:50:54;;;;;;;11.32;7.45;;;9.50;99.90;;;;;;5044142;28;20056;-80
2024/04/02 07:53:19;;;;;;;12.13;7.50;;;9.40;99.90;;;;;;5060579;28;20094;-80
2024/04/02 07:55:45;;;;;;;12.05;7.53;;;9.50;99.90;;;;;;5076402;28;20186;-79
2024/04/02 07:58:11;;;;;;;12.40;7.38;;;9.40;99.90;;;;;;5075933;28;20043;-80
2024/04/02 08:00:36;;;;;;;11.00;7.03;;;9.40;99.90;;;;;;5058141;28;20037;-80
2024/04/02 08:03:03;;;;;;;11.35;6.60;;;9.50;99.90;;;;;;5058659;28;20091;-79
2024/04/02 08:05:29;;;;;;;11.18;7.47;;;9.50;99.90;;;;;;5075582;28;20114;-80
2024/04/02 08:07:54;;;;;;;12.70;8.48;;;9.50;99.90;;;;;;5067570;28;20041;-80
2024/04/02 08:10:20;;;;;;;12.68;7.18;;;9.50;99.90;;;;;;5060916;28;20033;-80
2024/04/02 08:12:46;;;;;;;17.75;6.90;;;9.60;99.90;;;;;;5075248;28;20055;-78
2024/04/02 08:15:11;;;;;;;11.85;6.78;;;9.60;99.90;;;;;;5057334;28;20044;-79
2024/04/02 08:17:37;;;;;;;12.52;7.00;;;9.70;99.90;;;;;;5058691;28;20547;-81
2024/04/02 08:20:03;;;;;;;10.95;7.47;;;9.70;99.90;;;;;;5056039;28;20041;-81
2024/04/02 08:22:29;;;;;;;13.80;6.38;;;9.70;99.90;;;;;;5056623;28;20153;-80
2024/04/02 08:24:55;;;;;;;14.88;6.30;;;9.80;99.90;;;;;;5054428;28;20052;-80
2024/04/02 08:27:21;;;;;;;10.05;6.18;;;9.90;99.90;;;;;;5057105;28;20037;-80
2024/04/02 08:29:46;;;;;;;10.65;6.45;;;9.90;99.90;;;;;;5056399;28;20041;-81
2024/04/02 08:32:12;;;;;;;14.80;6.95;;;10.00;99.90;;;;;;5054927;28;20057;-80
2024/04/02 08:34:38;;;;;;;13.45;6.53;;;10.10;99.90;;;;;;5070470;28;20039;-80
2024/04/02 08:37:03;;;;;;;9.93;5.93;;;10.10;99.90;;;;;;5045152;28;20072;-80
2024/04/02 08:39:29;;;;;;;10.73;5.53;;;10.20;99.90;;;;;;5072336;28;20052;-81
2024/04/02 08:41:59;;;;;;;11.73;6.35;;;10.20;99.90;;;;;;5055492;28;20044;-80
2024/04/02 08:44:25;;;;;;;15.30;6.63;;;10.10;99.90;;;;;;5073569;28;20132;-81
2024/04/02 08:46:51;;;;;;;13.00;6.22;;;10.10;99.90;;;;;;5072363;28;20836;-81
2024/04/02 08:49:19;;;;;;;14.65;6.07;;;10.00;99.90;;;;;;5036792;28;20523;-79
2024/04/02 08:51:44;;;;;;;13.70;6.10;;;10.00;99.90;;;;;;5053069;28;20466;-81
2024/04/02 08:54:10;;;;;;;12.55;6.05;;;10.00;99.90;;;;;;5071831;28;20083;-83
2024/04/02 08:56:36;;;;;;;10.50;5.93;;;10.00;99.90;;;;;;5055961;28;20059;-80
2024/04/02 08:59:03;;;;;;;13.48;6.43;;;10.00;99.90;;;;;;5072269;28;20032;-81
2024/04/02 09:01:30;;;;;;;15.18;6.38;;;10.00;99.90;;;;;;5055502;28;20049;-80
2024/04/02 09:03:59;;;;;;;13.75;6.55;;;10.00;99.90;;;;;;5070958;28;20051;-80
2024/04/02 09:06:24;;;;;;;15.55;7.13;;;10.10;99.90;;;;;;5046506;28;20174;-81
2024/04/02 09:08:52;;;;;;;14.80;6.95;;;10.20;99.90;;;;;;5053953;28;20063;-78
2024/04/02 09:11:18;;;;;;;12.77;6.57;;;10.20;99.90;;;;;;5073172;28;20097;-80
2024/04/02 09:13:44;;;;;;;15.13;6.50;;;10.20;99.90;;;;;;5074161;28;20079;-81
2024/04/02 09:16:12;;;;;;;10.43;6.13;;;10.30;99.90;;;;;;5071010;28;20059;-80
2024/04/02 09:18:45;;;;;;;11.45;7.68;;;10.40;99.90;;;;;;5072389;28;20055;-82
2024/04/02 09:21:15;;;;;;;13.38;7.25;;;11.10;99.90;;;;;;5070812;28;20057;-84
2024/04/02 09:23:41;;;;;;;15.10;6.55;;;10.50;99.90;;;;;;5068145;28;20500;-81
2024/04/02 09:26:09;;;;;;;13.65;7.00;;;10.60;99.90;;;;;;5055643;28;20044;-83
2024/04/02 09:28:39;;;;;;;13.43;6.35;;;10.90;99.90;;;;;;5054681;28;20127;-83
2024/04/02 09:31:05;;;;;;;15.45;6.43;;;10.90;99.90;;;;;;5054927;28;20102;-82
2024/04/02 09:33:31;;;;;;;12.70;5.75;;;11.00;99.90;;;;;;5071489;28;20037;-82
2024/04/02 09:36:14;;;;;;;14.07;6.15;;;11.10;99.90;;;;;;5070548;28;20048;-81
2024/04/02 09:38:42;;;;;;;15.10;6.25;;;11.20;99.90;;;;;;5068729;28;20044;-83
2024/04/02 09:41:10;;;;;;;13.40;5.30;;;11.30;99.90;;;;;;5057486;28;20048;-82
2024/04/02 09:43:36;;;;;;;14.02;5.38;;;12.30;99.90;;;;;;5047024;28;20301;-81
2024/04/02 09:46:03;;;;;;;10.23;5.45;;;11.40;99.90;;;;;;5052653;28;20039;-82
2024/04/02 09:48:31;;;;;;;15.00;5.30;;;11.50;99.90;;;;;;5068823;28;20124;-82
2024/04/02 09:50:58;;;;;;;13.32;5.47;;;11.50;99.90;;;;;;5061625;28;20050;-83
2024/04/02 09:53:27;;;;;;;9.27;4.85;;;11.50;99.90;;;;;;5068458;28;20036;-83
2024/04/02 09:55:55;;;;;;;11.27;5.50;;;11.50;99.90;;;;;;5043003;28;20412;-83
2024/04/02 09:58:21;;;;;;;13.60;5.55;;;11.60;99.90;;;;;;5049553;28;20048;-81
2024/04/02 10:00:51;;;;;;;14.77;5.72;;;11.60;99.90;;;;;;5046593;28;20059;-80
2024/04/02 10:03:20;;;;;;;14.18;5.90;;;11.70;99.90;;;;;;5028877;28;20040;-81
2024/04/02 10:05:45;;;;;;;13.85;6.18;;;11.70;99.90;;;;;;5048457;28;20575;-82
2024/04/02 10:08:11;;;;;;;14.73;6.18;;;11.80;99.90;;;;;;5048766;28;20043;-81
2024/04/02 10:10:40;;;;;;;11.75;5.75;;;11.80;99.90;;;;;;5064827;28;20132;-82
2024/04/02 10:13:06;;;;;;;9.88;5.28;;;11.80;99.90;;;;;;5053785;28;20037;-79
2024/04/02 10:15:33;;;;;;;13.13;5.25;;;11.60;99.90;;;;;;5050063;28;20052;-84
2024/04/02 10:18:02;;;;;;;11.10;5.47;;;11.60;99.90;;;;;;5048801;28;20033;-80
2024/04/02 10:20:33;;;;;;;9.80;5.22;;;11.60;99.90;;;;;;5065215;28;20036;-82
2024/04/02 10:23:00;;;;;;;14.00;5.05;;;11.70;99.90;;;;;;5065540;28;20130;-78
2024/04/02 10:25:28;;;;;;;14.05;5.90;;;11.60;99.90;;;;;;5040241;28;20088;-80
2024/04/02 10:27:59;;;;;;;9.75;5.80;;;11.70;99.90;;;;;;5045696;28;20121;-80
2024/04/02 10:30:26;;;;;;;13.50;6.43;;;11.70;99.90;;;;;;5056669;28;20053;-80
2024/04/02 10:32:55;;;;;;;11.70;6.40;;;11.80;99.90;;;;;;5047994;28;20083;-84
2024/04/02 10:35:24;;;;;;;12.65;6.53;;;11.80;99.90;;;;;;5065260;28;20630;-82
2024/04/02 10:37:52;;;;;;;10.80;6.20;;;11.80;99.90;;;;;;5065134;28;20076;-84
2024/04/02 10:40:18;;;;;;;13.88;6.50;;;11.80;99.90;;;;;;5046042;28;20043;-82
2024/04/02 10:42:48;;;;;;;11.70;6.82;;;11.70;99.90;;;;;;5049860;28;20037;-82
2024/04/02 10:45:15;;;;;;;12.70;6.57;;;11.80;99.90;;;;;;5061895;28;20045;-82
2024/04/02 10:47:48;;;;;;;15.07;7.22;;;11.90;99.90;;;;;;5043800;28;20071;-83
2024/04/02 10:50:15;;;;;;;13.98;7.10;;;11.90;99.90;;;;;;5052823;28;20049;-83
2024/04/02 10:52:41;;;;;;;15.07;7.25;;;11.90;99.90;;;;;;5044071;28;20116;-81
2024/04/02 10:55:07;;;;;;;10.32;6.70;;;12.00;99.90;;;;;;5060757;28;20113;-82
2024/04/02 10:57:34;;;;;;;14.18;7.25;;;12.00;99.90;;;;;;5049607;28;20053;-81
2024/04/02 11:00:02;;;;;;;13.27;6.60;;;12.00;99.90;;;;;;5050273;28;20045;-83
2024/04/02 11:02:28;;;;;;;16.75;7.63;;;12.00;99.90;;;;;;5044170;28;20044;-81
2024/04/02 11:04:55;;;;;;;16.95;7.07;;;12.00;99.90;;;;;;5048996;28;20102;-78
2024/04/02 11:07:22;;;;;;;12.88;6.45;;;12.10;99.90;;;;;;5052665;28;20048;-79
2024/04/02 11:09:48;;;;;;;11.52;6.47;;;12.20;99.90;;;;;;5055445;28;20124;-82
2024/04/02 11:12:15;;;;;;;15.45;6.82;;;12.20;99.90;;;;;;5042523;28;20183;-82
2024/04/02 11:14:41;;;;;;;11.00;6.50;;;12.20;99.90;;;;;;5047680;28;20396;-83
2024/04/02 11:17:08;;;;;;;11.98;5.95;;;12.20;99.90;;;;;;5066395;28;20037;-80
2024/04/02 11:19:36;;;;;;;14.68;6.10;;;12.20;99.90;;;;;;5064557;28;20104;-83
2024/04/02 11:24:58;;;;;;;14.18;6.32;;;12.20;99.90;;;;;;5051868;28;20060;-80
2024/04/02 11:27:24;;;;;;;8.73;5.78;;;12.20;99.90;;;;;;5051911;28;20431;-81
2024/04/02 11:29:50;;;;;;;12.00;5.65;;;12.30;99.90;;;;;;5053737;28;20045;-82
2024/04/02 11:32:16;;;;;;;13.75;5.30;;;12.40;99.90;;;;;;5052117;28;20761;-83
2024/04/02 11:34:42;;;;;;;12.57;6.75;;;13.00;99.90;;;;;;5053126;28;20033;-82
2024/04/02 11:37:08;;;;;;;9.55;4.97;;;12.70;99.90;;;;;;5039053;28;20096;-82
2024/04/02 11:39:34;;;;;;;10.82;5.28;;;12.70;99.90;;;;;;5038199;28;20045;-82
2024/04/02 11:42:00;;;;;;;13.07;5.45;;;12.80;99.90;;;;;;5044224;28;20049;-82
2024/04/02 11:44:25;;;;;;;10.25;4.28;;;12.80;99.90;;;;;;5032257;28;20049;-82
2024/04/02 11:46:51;;;;;;;13.73;5.32;;;12.90;99.90;;;;;;5043022;28;20501;-82
2024/04/02 11:49:16;;;;;;;7.60;4.28;;;12.90;99.90;;;;;;5042161;28;20724;-82
2024/04/02 11:51:43;;;;;;;8.38;4.72;;;12.90;99.90;;;;;;5036437;28;20396;-82
2024/04/02 11:54:09;;;;;;;12.07;5.15;;;12.90;99.90;;;;;;5033131;28;20417;-83
2024/04/02 12:02:04;;;;;;;9.23;4.93;;;12.50;99.90;;;;;;5046662;28;20156;-81
2024/04/02 12:04:29;;;;;;;9.48;4.70;;;12.50;99.90;;;;;;5038911;28;20093;-80
2024/04/02 12:06:58;;;;;;;9.20;4.32;;;12.40;99.90;;;;;;5048397;28;20037;-82
2024/04/02 12:09:23;;;;;;;9.85;4.00;;;12.50;99.90;;;;;;5047234;28;20041;-82
2024/04/02 12:11:49;;;;;;;8.93;4.40;;;12.50;99.90;;;;;;5032467;28;20038;-81
2024/04/02 12:14:14;;;;;;;11.30;4.45;;;12.50;99.90;;;;;;5064673;28;20045;-81
2024/04/02 12:16:40;;;;;;;9.45;4.13;;;12.60;99.90;;;;;;5038202;28;20045;-81
2024/04/02 12:19:06;;;;;;;11.60;4.82;;;12.70;99.90;;;;;;5059442;28;20044;-83
2024/04/02 12:21:31;;;;;;;7.07;3.80;;;12.70;99.90;;;;;;5068227;28;20194;-82
2024/04/02 12:23:57;;;;;;;13.45;4.30;;;12.70;99.90;;;;;;5044690;28;20551;-79
2024/04/02 12:26:22;;;;;;;9.15;4.72;;;12.70;99.90;;;;;;5054959;28;20167;-80
2024/04/02 12:28:48;;;;;;;8.07;4.00;;;12.60;99.90;;;;;;5060737;28;20049;-84
2024/04/02 12:31:14;;;;;;;9.43;3.63;;;12.70;99.90;;;;;;5047146;28;20063;-81
2024/04/02 12:33:39;;;;;;;12.07;4.80;;;12.70;99.90;;;;;;5043814;28;20128;-82
2024/04/02 12:36:06;;;;;;;7.28;3.75;;;12.90;99.90;;;;;;5050622;28;20091;-78
2024/04/02 12:38:31;;;;;;;10.00;4.75;;;13.00;99.90;;;;;;5048528;28;20512;-82
2024/04/02 12:41:01;;;;;;;6.72;3.42;;;13.00;99.90;;;;;;5055266;28;20107;-81
2024/04/02 12:43:27;;;;;;;9.75;3.63;;;13.20;99.90;;;;;;5019466;28;20048;-80